Airfield :
LOGIN :

Register | Disclaimer

   EN    FR    IT 

 










Legend :    VFR   Marginal VFR   IFR   Intensive IFR   Very Intensive IFR
Visi :
Ceiling :
>= 8 km
>= 3000ft
5 to 8 km
1000 to 3000 ft
1500m to 5 km
500 to 1000 ft
800 to 1500m
200 to 500 ft
< 800m
< 200 ft
Symbols :   Thunderstorms  Fog  Heavy snow  Heavy precipitations  Wind > 20 kt
SIGMETs :     Misc.  Thunderstorms  Icing  Turbulence  Mountain Waves  Volcanic Ashes







- Airport Elevation : 364 ft
- IATA code : FRA


EDDF - Frankfurt Int.

CURRENT METAR :
  • 162150Z VRB01KT 9999 BCFG MIFG NSC 11/11 Q1024 NOSIG

EXPIRED METARs :
  • 162120Z VRB01KT 9999 MIFG NSC 12/11 Q1024 NOSIG
  • 162050Z 09003KT 040V120 9999 MIFG NSC 12/12 Q1024 NOSIG
  • 162020Z VRB01KT 9999 MIFG NSC 12/12 Q1024 NOSIG
  • 161950Z VRB01KT 9999 MIFG NSC 13/12 Q1023 NOSIG
  • 161920Z 08002KT 9999 MIFG NSC 13/13 Q1023 NOSIG

TAF TAF EDDF
Valid from the 16 at 18:00 until the 18 at 00:00 UTC


161700Z 1618/1724 VRB03KT CAVOK
BECMG 1623/1701 4500 MIFG
BECMG 1701/1703 1200 BCFG
PROB40
TEMPO 1702/1707 0200 FG BKN001
BECMG 1708/1711 9000
TEMPO 1708/1712 BKN004
No reported NOTAMs for that airfield.



MET'MAP, your aeronautical weather chart ! - Copyright ORBIFLY December 2007 - Disclaimer

ORBIFLY MET'MAP TEAM :

Programming & Development : Alexandra Zaïnal
Concept & Development : Baudouin d'Aumeries
Co-Development & Prog : Marc-Olivier Méhu
Technical & hardware support : Manuel Goepfert

Contact : metmap@orbifly.com




SOURCES & CREDITS :

   NOAA